sensor_id;sensor_type;location;lat;lon;timestamp;P1;P2;P0
61592;PMS5003;47485;51.378;-1.342;2023-04-24T00:00:49;41;37;
61592;PMS5003;47485;51.378;-1.342;2023-04-24T00:03:16;47;42;
61592;PMS5003;47485;51.378;-1.342;2023-04-24T00:05:43;46;44;
61592;PMS5003;47485;51.378;-1.342;2023-04-24T00:08:10;41;38;
61592;PMS5003;47485;51.378;-1.342;2023-04-24T00:10:37;43;39;
61592;PMS5003;47485;51.378;-1.342;2023-04-24T00:13:04;41;39;
61592;PMS5003;47485;51.378;-1.342;2023-04-24T00:15:31;43;38;
61592;PMS5003;47485;51.378;-1.342;2023-04-24T00:17:59;48;42;
61592;PMS5003;47485;51.378;-1.342;2023-04-24T00:20:26;46;38;
61592;PMS5003;47485;51.378;-1.342;2023-04-24T00:22:53;42;38;
61592;PMS5003;47485;51.378;-1.342;2023-04-24T00:25:19;35;31;
61592;PMS5003;47485;51.378;-1.342;2023-04-24T00:27:47;42;39;
61592;PMS5003;47485;51.378;-1.342;2023-04-24T00:30:14;35;33;
61592;PMS5003;47485;51.378;-1.342;2023-04-24T00:32:41;47;41;
61592;PMS5003;47485;51.378;-1.342;2023-04-24T00:35:08;42;36;
61592;PMS5003;47485;51.378;-1.342;2023-04-24T00:37:35;48;39;
61592;PMS5003;47485;51.378;-1.342;2023-04-24T00:40:02;41;38;
61592;PMS5003;47485;51.378;-1.342;2023-04-24T00:42:30;47;45;
61592;PMS5003;47485;51.378;-1.342;2023-04-24T00:44:58;48;39;
61592;PMS5003;47485;51.378;-1.342;2023-04-24T00:47:27;41;39;
61592;PMS5003;47485;51.378;-1.342;2023-04-24T00:49:55;38;35;
61592;PMS5003;47485;51.378;-1.342;2023-04-24T00:52:23;40;40;
61592;PMS5003;47485;51.378;-1.342;2023-04-24T00:54:50;39;31;
61592;PMS5003;47485;51.378;-1.342;2023-04-24T00:57:17;43;42;
61592;PMS5003;47485;51.378;-1.342;2023-04-24T00:59:44;40;38;
61592;PMS5003;47485;51.378;-1.342;2023-04-24T01:02:13;45;40;
61592;PMS5003;47485;51.378;-1.342;2023-04-24T01:04:40;44;39;
61592;PMS5003;47485;51.378;-1.342;2023-04-24T01:07:08;40;36;
61592;PMS5003;47485;51.378;-1.342;2023-04-24T01:09:35;34;33;
61592;PMS5003;47485;51.378;-1.342;2023-04-24T01:12:04;40;38;
61592;PMS5003;47485;51.378;-1.342;2023-04-24T01:14:32;40;36;
61592;PMS5003;47485;51.378;-1.342;2023-04-24T01:17:00;38;38;
61592;PMS5003;47485;51.378;-1.342;2023-04-24T01:19:27;39;37;
61592;PMS5003;47485;51.378;-1.342;2023-04-24T01:21:54;43;37;
61592;PMS5003;47485;51.378;-1.342;2023-04-24T01:24:25;39;36;
61592;PMS5003;47485;51.378;-1.342;2023-04-24T01:26:52;38;37;
61592;PMS5003;47485;51.378;-1.342;2023-04-24T01:29:19;37;36;
61592;PMS5003;47485;51.378;-1.342;2023-04-24T01:31:47;38;35;
61592;PMS5003;47485;51.378;-1.342;2023-04-24T01:34:14;39;36;
61592;PMS5003;47485;51.378;-1.342;2023-04-24T01:36:42;38;32;
61592;PMS5003;47485;51.378;-1.342;2023-04-24T01:39:11;35;32;
61592;PMS5003;47485;51.378;-1.342;2023-04-24T01:41:38;35;33;
61592;PMS5003;47485;51.378;-1.342;2023-04-24T01:44:06;36;31;
61592;PMS5003;47485;51.378;-1.342;2023-04-24T01:46:33;35;33;
61592;PMS5003;47485;51.378;-1.342;2023-04-24T01:49:01;37;35;
61592;PMS5003;47485;51.378;-1.342;2023-04-24T01:51:28;32;28;
61592;PMS5003;47485;51.378;-1.342;2023-04-24T01:53:55;30;30;
61592;PMS5003;47485;51.378;-1.342;2023-04-24T01:56:22;36;32;
61592;PMS5003;47485;51.378;-1.342;2023-04-24T01:58:49;38;35;
61592;PMS5003;47485;51.378;-1.342;2023-04-24T02:01:18;30;29;
61592;PMS5003;47485;51.378;-1.342;2023-04-24T02:03:46;37;33;
61592;PMS5003;47485;51.378;-1.342;2023-04-24T02:06:13;28;26;
61592;PMS5003;47485;51.378;-1.342;2023-04-24T02:08:40;31;31;
61592;PMS5003;47485;51.378;-1.342;2023-04-24T02:11:08;26;24;
61592;PMS5003;47485;51.378;-1.342;2023-04-24T02:13:35;35;32;
61592;PMS5003;47485;51.378;-1.342;2023-04-24T02:16:02;32;31;
61592;PMS5003;47485;51.378;-1.342;2023-04-24T02:18:29;31;31;
61592;PMS5003;47485;51.378;-1.342;2023-04-24T02:20:57;32;28;
61592;PMS5003;47485;51.378;-1.342;2023-04-24T02:23:24;31;27;
61592;PMS5003;47485;51.378;-1.342;2023-04-24T02:25:51;31;29;
61592;PMS5003;47485;51.378;-1.342;2023-04-24T02:28:18;38;31;
61592;PMS5003;47485;51.378;-1.342;2023-04-24T02:30:46;30;28;
61592;PMS5003;47485;51.378;-1.342;2023-04-24T02:33:13;34;27;
61592;PMS5003;47485;51.378;-1.342;2023-04-24T02:35:40;33;31;
61592;PMS5003;47485;51.378;-1.342;2023-04-24T02:38:07;29;27;
61592;PMS5003;47485;51.378;-1.342;2023-04-24T02:40:33;33;29;
61592;PMS5003;47485;51.378;-1.342;2023-04-24T02:43:01;26;24;
61592;PMS5003;47485;51.378;-1.342;2023-04-24T02:45:28;31;28;
61592;PMS5003;47485;51.378;-1.342;2023-04-24T02:47:55;28;27;
61592;PMS5003;47485;51.378;-1.342;2023-04-24T02:50:22;34;29;
61592;PMS5003;47485;51.378;-1.342;2023-04-24T02:52:50;33;29;
61592;PMS5003;47485;51.378;-1.342;2023-04-24T02:55:17;24;23;
61592;PMS5003;47485;51.378;-1.342;2023-04-24T02:57:44;29;28;
61592;PMS5003;47485;51.378;-1.342;2023-04-24T03:00:12;35;33;
61592;PMS5003;47485;51.378;-1.342;2023-04-24T03:02:39;31;29;
61592;PMS5003;47485;51.378;-1.342;2023-04-24T03:05:07;27;26;
61592;PMS5003;47485;51.378;-1.342;2023-04-24T03:07:33;28;25;
61592;PMS5003;47485;51.378;-1.342;2023-04-24T03:10:01;33;29;
61592;PMS5003;47485;51.378;-1.342;2023-04-24T03:12:28;28;27;
61592;PMS5003;47485;51.378;-1.342;2023-04-24T03:14:55;26;24;
61592;PMS5003;47485;51.378;-1.342;2023-04-24T03:17:22;26;23;
61592;PMS5003;47485;51.378;-1.342;2023-04-24T03:19:49;29;29;
61592;PMS5003;47485;51.378;-1.342;2023-04-24T03:22:16;31;27;
61592;PMS5003;47485;51.378;-1.342;2023-04-24T03:24:43;33;30;
61592;PMS5003;47485;51.378;-1.342;2023-04-24T03:27:10;22;21;
61592;PMS5003;47485;51.378;-1.342;2023-04-24T03:29:37;24;23;
61592;PMS5003;47485;51.378;-1.342;2023-04-24T03:32:04;26;25;
61592;PMS5003;47485;51.378;-1.342;2023-04-24T03:34:32;28;27;
61592;PMS5003;47485;51.378;-1.342;2023-04-24T03:37:00;33;29;
61592;PMS5003;47485;51.378;-1.342;2023-04-24T03:39:26;30;28;
61592;PMS5003;47485;51.378;-1.342;2023-04-24T03:41:54;35;30;
61592;PMS5003;47485;51.378;-1.342;2023-04-24T03:44:21;30;25;
61592;PMS5003;47485;51.378;-1.342;2023-04-24T03:46:48;27;25;
61592;PMS5003;47485;51.378;-1.342;2023-04-24T03:49:15;27;26;
61592;PMS5003;47485;51.378;-1.342;2023-04-24T03:51:42;26;25;
61592;PMS5003;47485;51.378;-1.342;2023-04-24T03:54:10;27;24;
61592;PMS5003;47485;51.378;-1.342;2023-04-24T03:56:37;25;24;
61592;PMS5003;47485;51.378;-1.342;2023-04-24T03:59:03;24;21;
61592;PMS5003;47485;51.378;-1.342;2023-04-24T04:01:30;30;27;
61592;PMS5003;47485;51.378;-1.342;2023-04-24T04:03:58;27;24;
61592;PMS5003;47485;51.378;-1.342;2023-04-24T04:06:25;26;23;
61592;PMS5003;47485;51.378;-1.342;2023-04-24T04:08:52;28;27;
61592;PMS5003;47485;51.378;-1.342;2023-04-24T04:11:20;30;27;
61592;PMS5003;47485;51.378;-1.342;2023-04-24T04:13:47;25;19;
61592;PMS5003;47485;51.378;-1.342;2023-04-24T04:16:15;22;21;
61592;PMS5003;47485;51.378;-1.342;2023-04-24T04:18:42;25;23;
61592;PMS5003;47485;51.378;-1.342;2023-04-24T04:21:09;26;22;
61592;PMS5003;47485;51.378;-1.342;2023-04-24T04:23:37;28;25;
61592;PMS5003;47485;51.378;-1.342;2023-04-24T04:26:04;25;22;
61592;PMS5003;47485;51.378;-1.342;2023-04-24T04:28:32;22;22;
61592;PMS5003;47485;51.378;-1.342;2023-04-24T04:30:59;32;26;
61592;PMS5003;47485;51.378;-1.342;2023-04-24T04:33:27;27;25;
61592;PMS5003;47485;51.378;-1.342;2023-04-24T04:35:54;21;21;
61592;PMS5003;47485;51.378;-1.342;2023-04-24T04:38:21;27;22;
61592;PMS5003;47485;51.378;-1.342;2023-04-24T04:40:48;22;21;
61592;PMS5003;47485;51.378;-1.342;2023-04-24T04:43:15;30;27;
61592;PMS5003;47485;51.378;-1.342;2023-04-24T04:45:42;31;27;
61592;PMS5003;47485;51.378;-1.342;2023-04-24T04:48:10;27;24;
61592;PMS5003;47485;51.378;-1.342;2023-04-24T04:50:37;24;23;
61592;PMS5003;47485;51.378;-1.342;2023-04-24T04:53:04;21;20;
61592;PMS5003;47485;51.378;-1.342;2023-04-24T04:55:32;25;22;
61592;PMS5003;47485;51.378;-1.342;2023-04-24T04:58:00;25;22;
61592;PMS5003;47485;51.378;-1.342;2023-04-24T05:00:27;21;20;
61592;PMS5003;47485;51.378;-1.342;2023-04-24T05:02:54;24;24;
61592;PMS5003;47485;51.378;-1.342;2023-04-24T05:05:21;23;19;
61592;PMS5003;47485;51.378;-1.342;2023-04-24T05:07:49;22;22;
61592;PMS5003;47485;51.378;-1.342;2023-04-24T05:10:17;20;18;
61592;PMS5003;47485;51.378;-1.342;2023-04-24T05:12:44;16;16;
61592;PMS5003;47485;51.378;-1.342;2023-04-24T05:15:10;21;21;
61592;PMS5003;47485;51.378;-1.342;2023-04-24T05:17:37;21;21;
61592;PMS5003;47485;51.378;-1.342;2023-04-24T05:20:05;22;21;
61592;PMS5003;47485;51.378;-1.342;2023-04-24T05:22:33;24;21;
61592;PMS5003;47485;51.378;-1.342;2023-04-24T05:25:01;24;19;
61592;PMS5003;47485;51.378;-1.342;2023-04-24T05:27:27;21;19;
61592;PMS5003;47485;51.378;-1.342;2023-04-24T05:29:54;20;20;
61592;PMS5003;47485;51.378;-1.342;2023-04-24T05:32:21;21;18;
61592;PMS5003;47485;51.378;-1.342;2023-04-24T05:34:48;23;21;
61592;PMS5003;47485;51.378;-1.342;2023-04-24T05:37:15;21;21;
61592;PMS5003;47485;51.378;-1.342;2023-04-24T05:39:42;26;25;
61592;PMS5003;47485;51.378;-1.342;2023-04-24T05:42:10;23;22;
61592;PMS5003;47485;51.378;-1.342;2023-04-24T05:44:37;23;22;
61592;PMS5003;47485;51.378;-1.342;2023-04-24T05:47:04;23;20;
61592;PMS5003;47485;51.378;-1.342;2023-04-24T05:49:31;29;28;
61592;PMS5003;47485;51.378;-1.342;2023-04-24T05:51:58;24;22;
61592;PMS5003;47485;51.378;-1.342;2023-04-24T05:54:25;28;24;
61592;PMS5003;47485;51.378;-1.342;2023-04-24T05:56:52;23;22;
61592;PMS5003;47485;51.378;-1.342;2023-04-24T05:59:19;24;23;
61592;PMS5003;47485;51.378;-1.342;2023-04-24T06:01:46;31;31;
61592;PMS5003;47485;51.378;-1.342;2023-04-24T06:04:14;31;27;
61592;PMS5003;47485;51.378;-1.342;2023-04-24T06:06:41;29;24;
61592;PMS5003;47485;51.378;-1.342;2023-04-24T06:09:09;26;25;
61592;PMS5003;47485;51.378;-1.342;2023-04-24T06:11:36;32;27;
61592;PMS5003;47485;51.378;-1.342;2023-04-24T06:14:03;35;31;
61592;PMS5003;47485;51.378;-1.342;2023-04-24T06:16:31;36;32;
61592;PMS5003;47485;51.378;-1.342;2023-04-24T06:18:58;32;30;
61592;PMS5003;47485;51.378;-1.342;2023-04-24T06:21:25;28;26;
61592;PMS5003;47485;51.378;-1.342;2023-04-24T06:23:52;34;28;
61592;PMS5003;47485;51.378;-1.342;2023-04-24T06:26:20;28;26;
61592;PMS5003;47485;51.378;-1.342;2023-04-24T06:28:47;33;32;
61592;PMS5003;47485;51.378;-1.342;2023-04-24T06:31:14;32;31;
61592;PMS5003;47485;51.378;-1.342;2023-04-24T06:33:41;38;34;
61592;PMS5003;47485;51.378;-1.342;2023-04-24T06:36:09;30;29;
61592;PMS5003;47485;51.378;-1.342;2023-04-24T06:38:37;33;31;
61592;PMS5003;47485;51.378;-1.342;2023-04-24T06:41:04;32;29;
61592;PMS5003;47485;51.378;-1.342;2023-04-24T06:43:31;35;31;
61592;PMS5003;47485;51.378;-1.342;2023-04-24T06:45:59;31;30;
61592;PMS5003;47485;51.378;-1.342;2023-04-24T06:48:26;29;24;
61592;PMS5003;47485;51.378;-1.342;2023-04-24T06:50:53;28;28;
61592;PMS5003;47485;51.378;-1.342;2023-04-24T06:53:20;32;29;
61592;PMS5003;47485;51.378;-1.342;2023-04-24T06:55:47;43;30;
61592;PMS5003;47485;51.378;-1.342;2023-04-24T06:58:14;33;28;
61592;PMS5003;47485;51.378;-1.342;2023-04-24T07:00:42;34;31;
61592;PMS5003;47485;51.378;-1.342;2023-04-24T07:03:09;25;23;
61592;PMS5003;47485;51.378;-1.342;2023-04-24T07:05:36;31;30;
61592;PMS5003;47485;51.378;-1.342;2023-04-24T07:08:03;28;26;
61592;PMS5003;47485;51.378;-1.342;2023-04-24T07:10:30;28;27;
61592;PMS5003;47485;51.378;-1.342;2023-04-24T07:12:57;28;28;
61592;PMS5003;47485;51.378;-1.342;2023-04-24T07:15:25;29;29;
61592;PMS5003;47485;51.378;-1.342;2023-04-24T07:17:52;27;26;
61592;PMS5003;47485;51.378;-1.342;2023-04-24T07:20:18;29;25;
61592;PMS5003;47485;51.378;-1.342;2023-04-24T07:22:45;30;26;
61592;PMS5003;47485;51.378;-1.342;2023-04-24T07:25:12;26;24;
61592;PMS5003;47485;51.378;-1.342;2023-04-24T07:27:39;25;25;
61592;PMS5003;47485;51.378;-1.342;2023-04-24T07:30:06;26;25;
61592;PMS5003;47485;51.378;-1.342;2023-04-24T07:32:33;36;30;
61592;PMS5003;47485;51.378;-1.342;2023-04-24T07:35:00;27;26;
61592;PMS5003;47485;51.378;-1.342;2023-04-24T07:37:27;25;23;
61592;PMS5003;47485;51.378;-1.342;2023-04-24T07:39:55;25;25;
61592;PMS5003;47485;51.378;-1.342;2023-04-24T07:42:22;26;24;
61592;PMS5003;47485;51.378;-1.342;2023-04-24T07:44:49;27;24;
61592;PMS5003;47485;51.378;-1.342;2023-04-24T07:47:16;27;26;
61592;PMS5003;47485;51.378;-1.342;2023-04-24T07:49:44;24;24;
61592;PMS5003;47485;51.378;-1.342;2023-04-24T07:52:11;36;34;
61592;PMS5003;47485;51.378;-1.342;2023-04-24T07:54:38;40;37;
61592;PMS5003;47485;51.378;-1.342;2023-04-24T07:57:05;35;29;
61592;PMS5003;47485;51.378;-1.342;2023-04-24T07:59:32;35;30;
61592;PMS5003;47485;51.378;-1.342;2023-04-24T08:01:59;25;25;
61592;PMS5003;47485;51.378;-1.342;2023-04-24T08:04:27;24;24;
61592;PMS5003;47485;51.378;-1.342;2023-04-24T08:06:55;19;18;
61592;PMS5003;47485;51.378;-1.342;2023-04-24T08:09:22;21;21;
61592;PMS5003;47485;51.378;-1.342;2023-04-24T08:11:49;22;22;
61592;PMS5003;47485;51.378;-1.342;2023-04-24T08:14:17;20;19;
61592;PMS5003;47485;51.378;-1.342;2023-04-24T08:16:44;24;24;
61592;PMS5003;47485;51.378;-1.342;2023-04-24T08:19:11;21;18;
61592;PMS5003;47485;51.378;-1.342;2023-04-24T08:21:38;20;18;
61592;PMS5003;47485;51.378;-1.342;2023-04-24T08:24:04;16;14;
61592;PMS5003;47485;51.378;-1.342;2023-04-24T08:26:31;23;20;
61592;PMS5003;47485;51.378;-1.342;2023-04-24T08:28:59;22;18;
61592;PMS5003;47485;51.378;-1.342;2023-04-24T08:31:27;16;16;
61592;PMS5003;47485;51.378;-1.342;2023-04-24T08:33:54;19;17;
61592;PMS5003;47485;51.378;-1.342;2023-04-24T08:36:21;20;18;
61592;PMS5003;47485;51.378;-1.342;2023-04-24T08:38:48;18;17;
61592;PMS5003;47485;51.378;-1.342;2023-04-24T08:41:14;14;12;
61592;PMS5003;47485;51.378;-1.342;2023-04-24T08:43:41;15;15;
61592;PMS5003;47485;51.378;-1.342;2023-04-24T08:46:08;22;20;
61592;PMS5003;47485;51.378;-1.342;2023-04-24T08:48:35;22;18;
61592;PMS5003;47485;51.378;-1.342;2023-04-24T08:51:02;18;18;
61592;PMS5003;47485;51.378;-1.342;2023-04-24T08:53:34;24;20;
61592;PMS5003;47485;51.378;-1.342;2023-04-24T08:56:02;18;17;
61592;PMS5003;47485;51.378;-1.342;2023-04-24T08:58:31;19;19;
61592;PMS5003;47485;51.378;-1.342;2023-04-24T09:00:58;19;18;
61592;PMS5003;47485;51.378;-1.342;2023-04-24T09:03:25;16;16;
61592;PMS5003;47485;51.378;-1.342;2023-04-24T09:05:53;15;15;
61592;PMS5003;47485;51.378;-1.342;2023-04-24T09:08:23;17;17;
61592;PMS5003;47485;51.378;-1.342;2023-04-24T09:10:51;15;13;
61592;PMS5003;47485;51.378;-1.342;2023-04-24T09:13:18;22;20;
61592;PMS5003;47485;51.378;-1.342;2023-04-24T09:15:46;18;16;
61592;PMS5003;47485;51.378;-1.342;2023-04-24T09:18:12;14;14;
61592;PMS5003;47485;51.378;-1.342;2023-04-24T09:20:56;18;16;
61592;PMS5003;47485;51.378;-1.342;2023-04-24T09:23:25;16;16;
61592;PMS5003;47485;51.378;-1.342;2023-04-24T09:25:54;19;14;
61592;PMS5003;47485;51.378;-1.342;2023-04-24T09:28:25;20;18;
61592;PMS5003;47485;51.378;-1.342;2023-04-24T09:31:01;19;16;
61592;PMS5003;47485;51.378;-1.342;2023-04-24T09:33:29;20;18;
61592;PMS5003;47485;51.378;-1.342;2023-04-24T09:35:57;22;17;
61592;PMS5003;47485;51.378;-1.342;2023-04-24T09:38:30;17;16;
61592;PMS5003;47485;51.378;-1.342;2023-04-24T09:40:59;19;17;
61592;PMS5003;47485;51.378;-1.342;2023-04-24T09:43:26;17;16;
61592;PMS5003;47485;51.378;-1.342;2023-04-24T09:45:55;19;18;
61592;PMS5003;47485;51.378;-1.342;2023-04-24T09:48:29;19;19;
61592;PMS5003;47485;51.378;-1.342;2023-04-24T09:50:56;18;16;
61592;PMS5003;47485;51.378;-1.342;2023-04-24T09:53:24;20;16;
61592;PMS5003;47485;51.378;-1.342;2023-04-24T09:55:51;19;16;
61592;PMS5003;47485;51.378;-1.342;2023-04-24T09:58:18;12;12;
61592;PMS5003;47485;51.378;-1.342;2023-04-24T10:00:50;18;18;
61592;PMS5003;47485;51.378;-1.342;2023-04-24T10:03:20;18;18;
61592;PMS5003;47485;51.378;-1.342;2023-04-24T10:05:46;28;24;
61592;PMS5003;47485;51.378;-1.342;2023-04-24T10:08:13;19;19;
61592;PMS5003;47485;51.378;-1.342;2023-04-24T10:10:41;25;21;
61592;PMS5003;47485;51.378;-1.342;2023-04-24T10:13:09;20;19;
61592;PMS5003;47485;51.378;-1.342;2023-04-24T10:15:38;23;19;
61592;PMS5003;47485;51.378;-1.342;2023-04-24T10:18:06;19;19;
61592;PMS5003;47485;51.378;-1.342;2023-04-24T10:20:35;22;16;
61592;PMS5003;47485;51.378;-1.342;2023-04-24T10:23:04;19;17;
61592;PMS5003;47485;51.378;-1.342;2023-04-24T10:25:32;21;18;
61592;PMS5003;47485;51.378;-1.342;2023-04-24T10:28:00;23;20;
61592;PMS5003;47485;51.378;-1.342;2023-04-24T10:30:29;16;16;
61592;PMS5003;47485;51.378;-1.342;2023-04-24T10:32:57;19;17;
61592;PMS5003;47485;51.378;-1.342;2023-04-24T10:35:25;21;19;
61592;PMS5003;47485;51.378;-1.342;2023-04-24T10:37:54;17;17;
61592;PMS5003;47485;51.378;-1.342;2023-04-24T10:40:25;20;18;
61592;PMS5003;47485;51.378;-1.342;2023-04-24T10:42:54;19;17;
61592;PMS5003;47485;51.378;-1.342;2023-04-24T10:45:22;17;16;
61592;PMS5003;47485;51.378;-1.342;2023-04-24T10:47:52;17;16;
61592;PMS5003;47485;51.378;-1.342;2023-04-24T10:50:23;18;17;
61592;PMS5003;47485;51.378;-1.342;2023-04-24T10:52:52;18;17;
61592;PMS5003;47485;51.378;-1.342;2023-04-24T10:55:38;14;14;
61592;PMS5003;47485;51.378;-1.342;2023-04-24T10:58:07;16;16;
61592;PMS5003;47485;51.378;-1.342;2023-04-24T11:00:34;17;15;
61592;PMS5003;47485;51.378;-1.342;2023-04-24T11:03:04;13;13;
61592;PMS5003;47485;51.378;-1.342;2023-04-24T11:06:04;22;20;
61592;PMS5003;47485;51.378;-1.342;2023-04-24T11:08:36;16;16;
61592;PMS5003;47485;51.378;-1.342;2023-04-24T11:11:08;16;16;
61592;PMS5003;47485;51.378;-1.342;2023-04-24T11:14:08;14;13;
61592;PMS5003;47485;51.378;-1.342;2023-04-24T11:16:36;14;12;
61592;PMS5003;47485;51.378;-1.342;2023-04-24T11:19:08;14;14;
61592;PMS5003;47485;51.378;-1.342;2023-04-24T11:21:41;19;14;
61592;PMS5003;47485;51.378;-1.342;2023-04-24T11:24:48;15;13;
61592;PMS5003;47485;51.378;-1.342;2023-04-24T11:27:17;14;13;
61592;PMS5003;47485;51.378;-1.342;2023-04-24T11:29:46;14;13;
61592;PMS5003;47485;51.378;-1.342;2023-04-24T11:32:14;13;12;
61592;PMS5003;47485;51.378;-1.342;2023-04-24T11:34:45;15;14;
61592;PMS5003;47485;51.378;-1.342;2023-04-24T11:37:13;15;14;
61592;PMS5003;47485;51.378;-1.342;2023-04-24T11:39:40;18;17;
61592;PMS5003;47485;51.378;-1.342;2023-04-24T11:42:07;17;14;
61592;PMS5003;47485;51.378;-1.342;2023-04-24T11:44:35;15;13;
61592;PMS5003;47485;51.378;-1.342;2023-04-24T11:47:03;14;13;
61592;PMS5003;47485;51.378;-1.342;2023-04-24T11:49:30;15;13;
61592;PMS5003;47485;51.378;-1.342;2023-04-24T11:51:57;16;15;
61592;PMS5003;47485;51.378;-1.342;2023-04-24T11:54:24;17;16;
61592;PMS5003;47485;51.378;-1.342;2023-04-24T11:56:51;16;13;
61592;PMS5003;47485;51.378;-1.342;2023-04-24T11:59:17;17;16;
61592;PMS5003;47485;51.378;-1.342;2023-04-24T12:01:44;15;11;
61592;PMS5003;47485;51.378;-1.342;2023-04-24T12:04:11;12;12;
61592;PMS5003;47485;51.378;-1.342;2023-04-24T12:06:38;16;16;
61592;PMS5003;47485;51.378;-1.342;2023-04-24T12:09:04;16;15;
61592;PMS5003;47485;51.378;-1.342;2023-04-24T12:11:31;14;13;
61592;PMS5003;47485;51.378;-1.342;2023-04-24T12:14:08;18;17;
61592;PMS5003;47485;51.378;-1.342;2023-04-24T12:16:36;20;20;
61592;PMS5003;47485;51.378;-1.342;2023-04-24T12:19:04;13;13;
61592;PMS5003;47485;51.378;-1.342;2023-04-24T12:21:31;16;16;
61592;PMS5003;47485;51.378;-1.342;2023-04-24T12:23:58;13;13;
61592;PMS5003;47485;51.378;-1.342;2023-04-24T12:26:26;17;16;
61592;PMS5003;47485;51.378;-1.342;2023-04-24T12:28:54;14;13;
61592;PMS5003;47485;51.378;-1.342;2023-04-24T12:31:21;15;15;
61592;PMS5003;47485;51.378;-1.342;2023-04-24T12:33:50;17;16;
61592;PMS5003;47485;51.378;-1.342;2023-04-24T12:36:17;17;12;
61592;PMS5003;47485;51.378;-1.342;2023-04-24T12:38:47;16;16;
61592;PMS5003;47485;51.378;-1.342;2023-04-24T12:41:19;22;20;
61592;PMS5003;47485;51.378;-1.342;2023-04-24T12:43:53;23;21;
61592;PMS5003;47485;51.378;-1.342;2023-04-24T12:46:20;17;17;
61592;PMS5003;47485;51.378;-1.342;2023-04-24T12:48:47;20;20;
61592;PMS5003;47485;51.378;-1.342;2023-04-24T12:51:14;17;16;
61592;PMS5003;47485;51.378;-1.342;2023-04-24T12:53:40;26;23;
61592;PMS5003;47485;51.378;-1.342;2023-04-24T12:56:07;18;16;
61592;PMS5003;47485;51.378;-1.342;2023-04-24T12:58:33;17;16;
61592;PMS5003;47485;51.378;-1.342;2023-04-24T13:01:00;16;16;
61592;PMS5003;47485;51.378;-1.342;2023-04-24T13:03:27;17;15;
61592;PMS5003;47485;51.378;-1.342;2023-04-24T13:05:54;17;16;
61592;PMS5003;47485;51.378;-1.342;2023-04-24T13:08:21;16;14;
61592;PMS5003;47485;51.378;-1.342;2023-04-24T13:10:48;20;18;
61592;PMS5003;47485;51.378;-1.342;2023-04-24T13:13:15;20;17;
61592;PMS5003;47485;51.378;-1.342;2023-04-24T13:15:41;21;18;
61592;PMS5003;47485;51.378;-1.342;2023-04-24T13:18:08;17;17;
61592;PMS5003;47485;51.378;-1.342;2023-04-24T13:20:35;20;20;
61592;PMS5003;47485;51.378;-1.342;2023-04-24T13:23:01;18;16;
61592;PMS5003;47485;51.378;-1.342;2023-04-24T13:25:30;26;19;
61592;PMS5003;47485;51.378;-1.342;2023-04-24T13:28:01;19;16;
61592;PMS5003;47485;51.378;-1.342;2023-04-24T13:30:28;19;18;
61592;PMS5003;47485;51.378;-1.342;2023-04-24T13:32:55;15;15;
61592;PMS5003;47485;51.378;-1.342;2023-04-24T13:35:21;16;15;
61592;PMS5003;47485;51.378;-1.342;2023-04-24T13:37:48;16;14;
61592;PMS5003;47485;51.378;-1.342;2023-04-24T13:40:15;20;19;
61592;PMS5003;47485;51.378;-1.342;2023-04-24T13:42:42;21;17;
61592;PMS5003;47485;51.378;-1.342;2023-04-24T13:45:09;20;19;
61592;PMS5003;47485;51.378;-1.342;2023-04-24T13:47:37;21;18;
61592;PMS5003;47485;51.378;-1.342;2023-04-24T13:50:04;20;19;
61592;PMS5003;47485;51.378;-1.342;2023-04-24T13:52:32;16;15;
61592;PMS5003;47485;51.378;-1.342;2023-04-24T13:55:00;22;17;
61592;PMS5003;47485;51.378;-1.342;2023-04-24T13:57:27;20;18;
61592;PMS5003;47485;51.378;-1.342;2023-04-24T13:59:54;18;16;
61592;PMS5003;47485;51.378;-1.342;2023-04-24T14:02:21;18;18;
61592;PMS5003;47485;51.378;-1.342;2023-04-24T14:04:48;15;14;
61592;PMS5003;47485;51.378;-1.342;2023-04-24T14:07:15;15;14;
61592;PMS5003;47485;51.378;-1.342;2023-04-24T14:09:42;20;19;
61592;PMS5003;47485;51.378;-1.342;2023-04-24T14:12:09;23;21;
61592;PMS5003;47485;51.378;-1.342;2023-04-24T14:14:36;28;23;
61592;PMS5003;47485;51.378;-1.342;2023-04-24T14:17:03;25;21;
61592;PMS5003;47485;51.378;-1.342;2023-04-24T14:19:30;24;19;
61592;PMS5003;47485;51.378;-1.342;2023-04-24T14:21:59;32;26;
61592;PMS5003;47485;51.378;-1.342;2023-04-24T14:24:27;27;25;
61592;PMS5003;47485;51.378;-1.342;2023-04-24T14:26:54;26;26;
61592;PMS5003;47485;51.378;-1.342;2023-04-24T14:29:21;22;18;
61592;PMS5003;47485;51.378;-1.342;2023-04-24T14:31:49;23;21;
61592;PMS5003;47485;51.378;-1.342;2023-04-24T14:34:16;21;20;
61592;PMS5003;47485;51.378;-1.342;2023-04-24T14:36:43;17;13;
61592;PMS5003;47485;51.378;-1.342;2023-04-24T14:39:10;20;16;
61592;PMS5003;47485;51.378;-1.342;2023-04-24T14:41:37;21;18;
61592;PMS5003;47485;51.378;-1.342;2023-04-24T14:44:04;21;16;
61592;PMS5003;47485;51.378;-1.342;2023-04-24T14:46:32;18;16;
61592;PMS5003;47485;51.378;-1.342;2023-04-24T14:49:00;17;15;
61592;PMS5003;47485;51.378;-1.342;2023-04-24T14:51:27;27;22;
61592;PMS5003;47485;51.378;-1.342;2023-04-24T14:53:54;23;23;
61592;PMS5003;47485;51.378;-1.342;2023-04-24T14:56:23;21;19;
61592;PMS5003;47485;51.378;-1.342;2023-04-24T14:58:50;19;18;
61592;PMS5003;47485;51.378;-1.342;2023-04-24T15:01:18;23;20;
61592;PMS5003;47485;51.378;-1.342;2023-04-24T15:03:46;18;15;
61592;PMS5003;47485;51.378;-1.342;2023-04-24T15:06:13;21;19;
61592;PMS5003;47485;51.378;-1.342;2023-04-24T15:08:41;19;16;
61592;PMS5003;47485;51.378;-1.342;2023-04-24T15:11:08;16;16;
61592;PMS5003;47485;51.378;-1.342;2023-04-24T15:13:37;21;18;
61592;PMS5003;47485;51.378;-1.342;2023-04-24T15:16:05;21;20;
61592;PMS5003;47485;51.378;-1.342;2023-04-24T15:18:32;17;15;
61592;PMS5003;47485;51.378;-1.342;2023-04-24T15:21:00;17;14;
61592;PMS5003;47485;51.378;-1.342;2023-04-24T15:23:27;14;14;
61592;PMS5003;47485;51.378;-1.342;2023-04-24T15:25:54;16;15;
61592;PMS5003;47485;51.378;-1.342;2023-04-24T15:28:22;15;13;
61592;PMS5003;47485;51.378;-1.342;2023-04-24T15:30:48;17;15;
61592;PMS5003;47485;51.378;-1.342;2023-04-24T15:33:16;12;12;
61592;PMS5003;47485;51.378;-1.342;2023-04-24T15:35:43;20;17;
61592;PMS5003;47485;51.378;-1.342;2023-04-24T15:38:10;11;11;
61592;PMS5003;47485;51.378;-1.342;2023-04-24T15:40:37;13;13;
61592;PMS5003;47485;51.378;-1.342;2023-04-24T15:43:04;15;11;
61592;PMS5003;47485;51.378;-1.342;2023-04-24T15:45:31;15;12;
61592;PMS5003;47485;51.378;-1.342;2023-04-24T15:47:59;13;11;
61592;PMS5003;47485;51.378;-1.342;2023-04-24T15:50:28;9;9;
61592;PMS5003;47485;51.378;-1.342;2023-04-24T15:52:55;11;11;
61592;PMS5003;47485;51.378;-1.342;2023-04-24T15:55:22;16;13;
61592;PMS5003;47485;51.378;-1.342;2023-04-24T15:57:50;11;10;
61592;PMS5003;47485;51.378;-1.342;2023-04-24T16:00:17;9;9;
61592;PMS5003;47485;51.378;-1.342;2023-04-24T16:02:44;8;8;
61592;PMS5003;47485;51.378;-1.342;2023-04-24T16:05:11;10;10;